Flight Track Log - Related Links

Times and Time Zones

All times are in EDT time to prevent confusion due to time zone crossing. See the AMF1840 flight status page for this flight to view local times or setup timezone preferences in your user account.

Time Position Orientation Groundspeed Altitude Reporting Facility
EDT Latitude Longitude Course Direction KTS MPH feet Rate Location/Type
Sat 01:38:02 PM 41.8111 -109.2778 336° Northwest 181 208 14,100  Level Salt Lake Center
Sat 01:39:04 PM 41.8519 -109.3250 319° Northwest 197 227 14,100 -48 Level Salt Lake Center
Sat 01:40:06 PM 41.9042 -109.3731 326° Northwest 202 232 14,000 -48 Descending Salt Lake Center
Sat 01:41:00 PM 41.8132 -109.2380 330° Northwest  Level FlightAware Approximate
Sat 01:41:08 PM 41.9517 -109.4133 328° Northwest 209 241 14,000  Level Salt Lake Center
Sat 01:42:00 PM 41.8591 -109.2757 323° Northwest  Level FlightAware Approximate
Sat 01:42:09 PM 41.9983 -109.4678 319° Northwest 201 231 14,100  Level Salt Lake Center
Sat 01:43:11 PM 42.0389 -109.5136 320° Northwest 200 230 14,100  Level Salt Lake Center
Sat 01:44:13 PM 42.0800 -109.5639 318° Northwest 205 236 14,100  Level Salt Lake Center
Sat 01:45:14 PM 42.1319 -109.6136 325° Northwest 206 237 14,100  Level Salt Lake Center
Sat 01:46:16 PM 42.1742 -109.6600 321° Northwest 204 235 14,100 -48 Level Salt Lake Center
Sat 01:47:18 PM 42.2247 -109.7119 323° Northwest 205 236 14,000  Descending Salt Lake Center
Sat 01:48:19 PM 42.2664 -109.7594 320° Northwest 204 235 14,100 49 Climbing Salt Lake Center
Sat 01:49:21 PM 42.3089 -109.8217 313° West 203 234 14,100 -48 Level Salt Lake Center
Sat 01:50:23 PM 42.3450 -109.8761 312° West 203 234 14,000 48 Descending Salt Lake Center
Sat 01:51:25 PM 42.3922 -109.9297 320° Northwest 201 231 14,200 49 Climbing Salt Lake Center
Sat 01:52:26 PM 42.4361 -109.9711 325° Northwest 200 230 14,100 -49 Descending Salt Lake Center
Sat 01:53:28 PM 42.4794 -110.0142 324° Northwest 201 231 14,100  Level Salt Lake Center
Sat 01:54:30 PM 42.5286 -110.0672 322° Northwest 202 232 14,100  Level Salt Lake Center
Sat 01:55:32 PM 42.5708 -110.1106 323° Northwest 201 231 14,100  Level Salt Lake Center
Sat 01:56:33 PM 42.6278 -110.1419 338° Northwest 198 228 14,100  Level Salt Lake Center
Sat 01:57:35 PM 42.6758 -110.1658 340° North 194 223 14,100 48 Level Salt Lake Center
Sat 01:58:37 PM 42.7331 -110.2008 336° Northwest 199 229 14,200  Climbing Salt Lake Center
Sat 01:59:38 PM 42.7822 -110.2289 337° Northwest 201 231 14,100 -49 Descending Salt Lake Center
Sat 02:00:40 PM 42.8297 -110.2633 332° Northwest 201 231 14,100 -48 Level Salt Lake Center
Sat 02:01:42 PM 42.8850 -110.3019 333° Northwest 201 231 14,000 49 Descending Salt Lake Center
Sat 02:02:43 PM 42.9328 -110.3347 333° Northwest 201 231 14,200  Climbing Salt Lake Center
Sat 02:03:45 PM 42.9917 -110.3739 334° Northwest 206 237 14,000 -97 Descending Salt Lake Center
Sat 02:04:47 PM 43.0414 -110.4081 333° Northwest 209 241 14,000 -49 Level Salt Lake Center
Sat 02:05:48 PM 43.0958 -110.4486 331° Northwest 202 232 13,900  Descending Salt Lake Center
Sat 02:06:50 PM 43.1425 -110.4753 337° Northwest 192 221 14,000 48 Climbing Salt Lake Center
Sat 02:07:52 PM 43.2000 -110.5022 341° North 195 224 14,000  Level Salt Lake Center
Sat 02:08:53 PM 43.2492 -110.5256 341° North 196 226 14,000 -49 Level Salt Lake Center
Sat 02:09:55 PM 43.2964 -110.5500 339° North 197 227 13,900  Descending Salt Lake Center
Sat 02:10:57 PM 43.3467 -110.5806 336° Northwest 198 228 14,000  Climbing Salt Lake Center
Sat 02:11:58 PM 43.4064 -110.6200 334° Northwest 198 228 13,900 -195 Descending Salt Lake Center
Sat 02:13:00 PM 43.4583 -110.6506 337° Northwest 202 232 13,600 -878 Descending Salt Lake Center
Sat 02:14:01 PM 43.5169 -110.6803 340° North 221 254 12,100 -1,268 Descending Salt Lake Center
Sat 02:15:03 PM 43.5758 -110.6892 354° North 223 257 11,000 -1,016 Descending Salt Lake Center
Sat 02:16:05 PM 43.6314 -110.6731 12° North 216 249 10,000 -1,220 Descending Salt Lake Center
Sat 02:17:06 PM 43.6644 -110.7128 319° Northwest 209 241 8,500 -1,512 Descending Salt Lake Center
Sat 02:18:08 PM 43.6256 -110.7283 196° South 171 197 6,900 -1,548 Descending Salt Lake Center

Login

Don't have an account? Register now (free) for customized features, flight alerts, and more!